Time;durP1;ratioP1;P1;durP2;ratioP2;P2;SDS_P1;SDS_P2;PMS_P1;PMS_P2;Temp;Humidity;BMP_temperature;BMP_pressure;BME280_temperature;BME280_humidity;BME280_pressure;Samples;Min_cycle;Max_cycle;Signal;HPM_P1;HPM_P2
2023/04/22 00:01:43;;;;;;;1999.90;999.90;;;28.50;95.30;;;;;;5043391;28;20029;-68
2023/04/22 00:04:10;;;;;;;1999.90;999.90;;;29.20;94.90;;;;;;5035694;28;20037;-68
2023/04/22 00:06:38;;;;;;;1999.90;999.90;;;30.00;93.60;;;;;;5056708;28;20476;-69
2023/04/22 00:09:05;;;;;;;1999.90;999.90;;;30.40;92.90;;;;;;5049042;28;20056;-69
2023/04/22 00:11:32;;;;;;;1999.90;999.90;;;30.70;92.40;;;;;;5041073;28;20376;-69
2023/04/22 00:14:00;;;;;;;1999.90;999.90;;;31.00;92.50;;;;;;5047303;28;20035;-70
2023/04/22 00:16:27;;;;;;;1999.90;999.90;;;31.20;91.80;;;;;;5050982;28;20037;-69
2023/04/22 00:18:54;;;;;;;1999.90;999.90;;;31.60;90.70;;;;;;5052026;28;20035;-69
2023/04/22 00:21:22;;;;;;;1999.90;999.90;;;31.80;90.90;;;;;;5053873;28;20391;-71
2023/04/22 00:23:49;;;;;;;1999.90;999.90;;;32.00;90.60;;;;;;5056975;28;20086;-68
2023/04/22 00:26:16;;;;;;;1999.90;999.90;;;32.20;90.10;;;;;;5047886;28;20499;-68
2023/04/22 00:28:43;;;;;;;1999.90;999.90;;;32.00;90.00;;;;;;5046164;28;20084;-68
2023/04/22 00:31:11;;;;;;;1999.90;999.90;;;32.00;90.00;;;;;;5046699;28;20040;-68
2023/04/22 00:33:38;;;;;;;1999.90;999.90;;;32.10;89.90;;;;;;5045750;28;20111;-68
2023/04/22 00:36:06;;;;;;;1999.90;999.90;;;31.90;89.60;;;;;;5045784;28;20378;-69
2023/04/22 00:38:33;;;;;;;1999.90;999.90;;;31.90;90.20;;;;;;5056096;28;20067;-69
2023/04/22 00:41:02;;;;;;;1999.90;999.90;;;32.00;90.20;;;;;;5049922;28;20053;-68
2023/04/22 00:43:30;;;;;;;1999.90;999.90;;;31.90;90.10;;;;;;5055846;28;20045;-68
2023/04/22 00:45:57;;;;;;;1999.90;999.90;;;32.20;89.60;;;;;;5048540;28;20033;-68
2023/04/22 00:48:25;;;;;;;1999.90;999.90;;;32.30;89.30;;;;;;5052191;28;20025;-69
2023/04/22 00:50:53;;;;;;;1999.90;999.90;;;32.40;89.40;;;;;;5045596;28;20368;-69
2023/04/22 00:53:20;;;;;;;1999.90;999.90;;;32.50;89.50;;;;;;5052192;28;20067;-70
2023/04/22 00:55:47;;;;;;;1999.90;999.90;;;32.90;88.70;;;;;;5046879;28;20029;-68
2023/04/22 00:58:15;;;;;;;1999.90;999.90;;;33.10;87.40;;;;;;5051547;28;20045;-69
2023/04/22 01:00:43;;;;;;;1999.90;999.90;;;32.90;87.90;;;;;;5049254;28;20039;-70
2023/04/22 01:03:11;;;;;;;1999.90;999.90;;;32.80;88.20;;;;;;5047684;28;20044;-71
2023/04/22 01:05:38;;;;;;;1999.90;999.90;;;32.80;87.40;;;;;;5046092;28;20121;-70
2023/04/22 01:08:05;;;;;;;1999.90;999.90;;;32.80;88.30;;;;;;5048874;28;20403;-68
2023/04/22 01:10:33;;;;;;;1999.90;999.90;;;32.30;87.90;;;;;;5044233;28;20396;-68
2023/04/22 01:13:00;;;;;;;1999.90;999.90;;;31.40;88.30;;;;;;5051516;28;20488;-68
2023/04/22 01:15:28;;;;;;;1999.90;999.90;;;30.60;89.70;;;;;;5052777;28;20053;-69
2023/04/22 01:17:55;;;;;;;1999.90;999.90;;;29.70;90.30;;;;;;5059437;28;20036;-69
2023/04/22 01:20:23;;;;;;;1999.90;999.90;;;29.00;91.20;;;;;;5050692;28;20074;-69
2023/04/22 01:22:52;;;;;;;1999.90;999.90;;;28.30;91.60;;;;;;5047746;28;20041;-68
2023/04/22 01:25:20;;;;;;;1999.90;999.90;;;27.80;92.50;;;;;;5044117;28;20075;-69
2023/04/22 01:27:47;;;;;;;1999.90;999.90;;;27.60;92.90;;;;;;5053711;28;20112;-69
2023/04/22 01:30:15;;;;;;;1999.90;999.90;;;28.00;93.10;;;;;;5045483;28;20159;-69
2023/04/22 01:32:43;;;;;;;1999.90;999.90;;;28.10;93.10;;;;;;5048293;28;20052;-69
2023/04/22 01:35:11;;;;;;;1999.90;999.90;;;27.90;93.30;;;;;;5049992;28;20017;-69
2023/04/22 01:37:38;;;;;;;1999.90;999.90;;;27.60;93.40;;;;;;5050623;28;20045;-69
2023/04/22 01:40:08;;;;;;;1999.90;999.90;;;27.20;93.60;;;;;;5051451;28;20075;-68
2023/04/22 01:42:36;;;;;;;1999.90;999.90;;;26.70;94.10;;;;;;5056361;28;20063;-68
2023/04/22 01:45:04;;;;;;;1999.90;999.90;;;26.30;94.70;;;;;;5054254;28;20020;-69
2023/04/22 01:47:31;;;;;;;1999.90;999.90;;;25.90;95.30;;;;;;5053057;28;20055;-68
2023/04/22 01:49:59;;;;;;;1999.90;999.90;;;25.80;95.50;;;;;;5045724;28;20063;-69
2023/04/22 01:52:27;;;;;;;1999.90;999.90;;;25.70;95.70;;;;;;5054836;28;20063;-68
2023/04/22 01:54:55;;;;;;;1999.90;999.90;;;25.60;95.30;;;;;;5052224;28;20464;-68
2023/04/22 01:57:22;;;;;;;1999.90;999.90;;;25.50;95.20;;;;;;5055857;28;20064;-68
2023/04/22 01:59:49;;;;;;;1999.90;999.90;;;25.30;95.50;;;;;;5052307;28;20024;-69
2023/04/22 02:02:17;;;;;;;1999.90;999.90;;;25.20;95.80;;;;;;5063073;28;20113;-68
2023/04/22 02:04:44;;;;;;;1999.90;999.90;;;25.20;96.30;;;;;;5053248;28;20083;-68
2023/04/22 02:07:11;;;;;;;1999.90;999.90;;;25.10;96.80;;;;;;5048677;28;20119;-69
2023/04/22 02:09:39;;;;;;;1999.90;999.90;;;25.00;96.70;;;;;;5045669;28;20045;-68
2023/04/22 02:12:06;;;;;;;1999.90;999.90;;;25.00;96.60;;;;;;5051249;28;20487;-68
2023/04/22 02:14:33;;;;;;;1999.90;999.90;;;24.80;96.80;;;;;;5049865;28;20021;-68
2023/04/22 02:17:03;;;;;;;1999.90;999.90;;;24.80;97.20;;;;;;5057574;28;20503;-68
2023/04/22 02:19:31;;;;;;;1999.90;999.90;;;24.70;97.20;;;;;;5049686;28;20056;-68
2023/04/22 02:21:58;;;;;;;1999.90;999.90;;;24.70;97.40;;;;;;5055837;28;20036;-68
2023/04/22 02:24:25;;;;;;;1999.90;999.90;;;24.70;97.70;;;;;;5057468;28;20032;-68
2023/04/22 02:26:53;;;;;;;1999.90;999.90;;;24.80;97.60;;;;;;5054520;28;20425;-68
2023/04/22 02:29:20;;;;;;;1999.90;999.90;;;24.90;97.60;;;;;;5058823;28;20028;-69
2023/04/22 02:31:47;;;;;;;1999.90;999.90;;;25.00;97.70;;;;;;5058149;28;20043;-69
2023/04/22 02:34:15;;;;;;;1999.90;999.90;;;25.00;97.60;;;;;;5050738;28;20021;-69
2023/04/22 02:36:42;;;;;;;1999.90;999.90;;;25.10;97.80;;;;;;5053783;28;20033;-68
2023/04/22 02:39:10;;;;;;;1999.90;999.90;;;25.10;97.40;;;;;;5059706;28;20059;-68
2023/04/22 02:41:37;;;;;;;1999.90;999.90;;;25.10;97.40;;;;;;5050264;28;20067;-68
2023/04/22 02:44:05;;;;;;;1999.90;999.90;;;25.20;97.30;;;;;;5056212;28;20331;-68
2023/04/22 02:46:32;;;;;;;1999.90;999.90;;;25.20;97.30;;;;;;5041765;28;20022;-68
2023/04/22 02:49:00;;;;;;;1999.90;999.90;;;25.10;97.20;;;;;;5055297;28;20433;-69
2023/04/22 02:51:27;;;;;;;1999.90;999.90;;;25.10;97.20;;;;;;5051958;28;20086;-69
2023/04/22 02:53:55;;;;;;;1999.90;999.90;;;25.10;97.10;;;;;;5055894;28;20521;-69
2023/04/22 02:56:22;;;;;;;1999.90;999.90;;;25.10;97.10;;;;;;5051343;28;20029;-70
2023/04/22 02:58:49;;;;;;;1999.90;999.90;;;25.10;97.60;;;;;;5047839;28;20032;-69
2023/04/22 03:01:16;;;;;;;1999.90;999.90;;;25.00;97.70;;;;;;5046728;28;20039;-69
2023/04/22 03:03:44;;;;;;;1999.90;999.90;;;25.00;98.20;;;;;;5051270;28;20017;-70
2023/04/22 03:06:11;;;;;;;1999.90;999.90;;;24.90;97.90;;;;;;5048804;28;20439;-69
2023/04/22 03:08:38;;;;;;;1999.90;999.90;;;24.90;97.80;;;;;;5050423;28;20017;-69
2023/04/22 03:11:06;;;;;;;1999.90;999.90;;;25.00;97.80;;;;;;5046777;28;20063;-69
2023/04/22 03:13:33;;;;;;;1999.90;999.90;;;25.00;97.80;;;;;;5047297;28;20025;-69
2023/04/22 03:16:00;;;;;;;1999.90;999.90;;;25.00;97.30;;;;;;5042617;28;20116;-69
2023/04/22 03:18:28;;;;;;;1999.90;999.90;;;24.90;97.10;;;;;;5048856;28;20127;-69
2023/04/22 03:20:55;;;;;;;1999.90;999.90;;;24.90;96.70;;;;;;5043802;28;20025;-69
2023/04/22 03:23:22;;;;;;;1999.90;999.90;;;24.90;96.90;;;;;;5050218;28;20028;-69
2023/04/22 03:25:50;;;;;;;1999.90;999.90;;;24.70;96.80;;;;;;5042484;28;20514;-70
2023/04/22 03:28:18;;;;;;;1999.90;999.90;;;24.70;97.10;;;;;;5052436;28;20124;-70
2023/04/22 03:30:46;;;;;;;1999.90;999.90;;;24.60;97.40;;;;;;5052560;28;20113;-70
2023/04/22 03:33:13;;;;;;;1999.90;999.90;;;24.50;97.80;;;;;;5049065;28;20112;-69
2023/04/22 03:35:40;;;;;;;1999.90;999.90;;;24.40;97.80;;;;;;5048088;28;20028;-69
2023/04/22 03:38:08;;;;;;;1999.90;999.90;;;24.40;98.00;;;;;;5051415;28;20380;-70
2023/04/22 03:40:35;;;;;;;1999.90;999.90;;;24.30;97.90;;;;;;5052885;28;20029;-70
2023/04/22 03:43:02;;;;;;;1999.90;999.90;;;24.20;98.00;;;;;;5051582;28;20029;-70
2023/04/22 03:45:30;;;;;;;1999.90;999.90;;;24.20;97.90;;;;;;5047527;28;20660;-70
2023/04/22 03:47:57;;;;;;;1999.90;999.90;;;24.20;97.80;;;;;;5055394;28;20064;-70
2023/04/22 03:50:25;;;;;;;1999.90;999.90;;;24.30;97.90;;;;;;5048177;28;20029;-70
2023/04/22 03:52:52;;;;;;;1999.90;999.90;;;24.40;97.90;;;;;;5060428;28;20357;-70
2023/04/22 03:55:19;;;;;;;1999.90;999.90;;;24.50;98.20;;;;;;5052664;28;20062;-69
2023/04/22 03:57:47;;;;;;;1999.90;999.90;;;24.60;98.10;;;;;;5051387;28;20040;-69
2023/04/22 04:00:14;;;;;;;1999.90;999.90;;;24.70;98.00;;;;;;5046092;28;20021;-69
2023/04/22 04:02:42;;;;;;;1999.90;999.90;;;24.70;97.80;;;;;;5054016;28;20563;-69
2023/04/22 04:05:10;;;;;;;1999.90;999.90;;;24.90;97.80;;;;;;5049141;28;20032;-69
2023/04/22 04:07:37;;;;;;;1999.90;999.90;;;24.90;97.70;;;;;;5059268;28;20492;-69
2023/04/22 04:10:05;;;;;;;1999.90;999.90;;;24.90;98.00;;;;;;5052465;28;20053;-70
2023/04/22 04:12:32;;;;;;;1999.90;999.90;;;24.90;97.70;;;;;;5058119;28;20036;-69
2023/04/22 04:14:59;;;;;;;1999.90;999.90;;;24.90;97.70;;;;;;5047709;28;20422;-69
2023/04/22 04:17:27;;;;;;;1999.90;999.90;;;24.80;97.50;;;;;;5054590;28;20033;-70
2023/04/22 04:19:55;;;;;;;1999.90;999.90;;;24.70;97.20;;;;;;5046508;28;20382;-70
2023/04/22 04:22:23;;;;;;;1999.90;999.90;;;24.60;97.80;;;;;;5055624;28;20035;-69
2023/04/22 04:24:51;;;;;;;1999.90;999.90;;;24.60;98.30;;;;;;5056520;28;20175;-70
2023/04/22 04:27:18;;;;;;;1999.90;999.90;;;24.40;98.40;;;;;;5051991;28;20090;-69
2023/04/22 04:29:46;;;;;;;1999.90;999.90;;;24.30;98.60;;;;;;5054274;28;20135;-70
2023/04/22 04:32:14;;;;;;;1999.90;999.90;;;24.20;98.50;;;;;;5062299;28;20395;-69
2023/04/22 04:34:41;;;;;;;1999.90;999.90;;;24.30;98.50;;;;;;5045700;28;20021;-69
2023/04/22 04:37:08;;;;;;;1999.90;999.90;;;24.20;98.50;;;;;;5049616;28;20187;-68
2023/04/22 04:39:36;;;;;;;1999.90;999.90;;;24.20;98.90;;;;;;5055138;28;20100;-70
2023/04/22 04:42:03;;;;;;;1999.90;999.90;;;24.20;98.80;;;;;;5060831;28;20032;-68
2023/04/22 04:44:31;;;;;;;1999.90;999.90;;;24.20;98.80;;;;;;5045879;28;20033;-69
2023/04/22 04:46:58;;;;;;;1999.90;999.90;;;24.20;98.70;;;;;;5047097;28;20024;-69
2023/04/22 04:49:29;;;;;;;1999.90;999.90;;;24.20;98.60;;;;;;5047129;28;20480;-68
2023/04/22 04:51:57;;;;;;;1999.90;999.90;;;24.10;98.40;;;;;;5042926;28;20026;-69
2023/04/22 04:54:25;;;;;;;1999.90;999.90;;;24.00;98.70;;;;;;5039229;28;20687;-69
2023/04/22 04:56:52;;;;;;;1999.90;999.90;;;23.90;99.00;;;;;;5046489;28;20178;-69
2023/04/22 04:59:19;;;;;;;1999.90;999.90;;;23.90;98.80;;;;;;5044368;28;20789;-69
2023/04/22 05:01:46;;;;;;;1999.90;999.90;;;24.00;99.10;;;;;;5042802;28;20460;-70
2023/04/22 05:04:14;;;;;;;1999.90;999.90;;;24.00;99.20;;;;;;5040344;28;20041;-70
2023/04/22 05:06:41;;;;;;;1999.90;999.90;;;23.90;99.30;;;;;;5038576;28;20131;-70
2023/04/22 05:09:09;;;;;;;1999.90;999.90;;;24.00;99.20;;;;;;5039743;28;20095;-70
2023/04/22 05:11:36;;;;;;;1999.90;999.90;;;23.90;99.50;;;;;;5047222;28;20029;-70
2023/04/22 05:14:03;;;;;;;1999.90;999.90;;;23.90;99.60;;;;;;5045904;28;20036;-69
2023/04/22 05:16:31;;;;;;;1999.90;999.90;;;23.90;99.60;;;;;;5041001;28;20498;-70
2023/04/22 05:18:58;;;;;;;1999.90;999.90;;;23.80;99.40;;;;;;5062797;28;20033;-70
2023/04/22 05:21:25;;;;;;;1999.90;999.90;;;23.70;99.20;;;;;;5049960;28;20414;-70
2023/04/22 05:23:53;;;;;;;1999.90;999.90;;;23.60;99.60;;;;;;5047002;28;20036;-69
2023/04/22 05:26:20;;;;;;;1999.90;999.90;;;23.50;99.80;;;;;;5041824;28;20509;-70
2023/04/22 05:28:47;;;;;;;1999.90;999.90;;;23.60;99.90;;;;;;5047580;28;20041;-69
2023/04/22 05:31:14;;;;;;;1999.90;999.90;;;23.50;99.90;;;;;;5049444;28;20025;-68
2023/04/22 05:33:42;;;;;;;1999.90;999.90;;;23.50;99.90;;;;;;5051500;28;20044;-70
2023/04/22 05:36:09;;;;;;;1999.90;999.90;;;23.50;99.60;;;;;;5044313;28;20503;-68
2023/04/22 05:38:36;;;;;;;1999.90;999.90;;;23.40;99.90;;;;;;5054962;28;20051;-68
2023/04/22 05:41:04;;;;;;;1999.90;999.90;;;23.30;99.90;;;;;;5051543;28;20025;-69
2023/04/22 05:43:31;;;;;;;1999.90;999.90;;;23.20;99.90;;;;;;5046228;28;20040;-69
2023/04/22 05:45:58;;;;;;;1999.90;999.90;;;23.00;99.90;;;;;;5052816;28;20033;-68
2023/04/22 05:48:26;;;;;;;1999.90;999.90;;;23.00;99.90;;;;;;5056313;28;20033;-69
2023/04/22 05:50:53;;;;;;;1999.90;999.90;;;22.90;99.90;;;;;;5055332;28;20104;-68
2023/04/22 05:53:20;;;;;;;1999.90;999.90;;;22.90;99.90;;;;;;5059340;28;20502;-68
2023/04/22 05:55:48;;;;;;;1999.90;999.90;;;22.80;99.90;;;;;;5047784;28;20029;-69
2023/04/22 05:58:15;;;;;;;1999.90;999.90;;;22.80;99.90;;;;;;5060923;28;20101;-69
2023/04/22 06:00:42;;;;;;;1999.90;999.90;;;22.70;99.90;;;;;;5056424;28;20082;-69
2023/04/22 06:03:09;;;;;;;1999.90;999.90;;;22.70;99.90;;;;;;5059189;28;20041;-69
2023/04/22 06:05:37;;;;;;;1999.90;999.90;;;22.60;99.90;;;;;;5054040;28;21424;-69
2023/04/22 06:08:04;;;;;;;1999.90;999.90;;;22.50;99.90;;;;;;5057081;28;20025;-69
2023/04/22 06:10:31;;;;;;;1999.90;999.90;;;22.40;99.90;;;;;;5054963;28;20049;-69
2023/04/22 06:13:00;;;;;;;1999.90;999.90;;;22.40;99.90;;;;;;5053653;28;20372;-69
2023/04/22 06:15:27;;;;;;;1999.90;999.90;;;22.20;99.90;;;;;;5042008;28;20037;-69
2023/04/22 06:17:55;;;;;;;1999.90;999.90;;;22.10;99.90;;;;;;5054939;28;20075;-70
2023/04/22 06:20:22;;;;;;;1999.90;999.90;;;21.90;99.90;;;;;;5038157;28;20029;-69
2023/04/22 06:22:49;;;;;;;1999.90;999.90;;;21.80;99.90;;;;;;5047907;28;20033;-70
2023/04/22 06:25:17;;;;;;;1999.90;999.90;;;21.70;99.90;;;;;;5045468;28;20025;-69
2023/04/22 06:27:44;;;;;;;1999.90;999.90;;;21.60;99.90;;;;;;5049941;28;20040;-70
2023/04/22 06:30:12;;;;;;;1999.90;999.90;;;21.50;99.90;;;;;;5044717;28;20025;-69
2023/04/22 06:32:39;;;;;;;1999.90;999.90;;;21.30;99.90;;;;;;5048159;28;20037;-68
2023/04/22 06:35:07;;;;;;;1999.90;999.90;;;21.20;99.90;;;;;;5043225;28;20052;-68
2023/04/22 06:37:34;;;;;;;1999.90;999.90;;;21.10;99.90;;;;;;5046004;28;20030;-69
2023/04/22 06:40:02;;;;;;;1999.90;999.90;;;21.10;99.90;;;;;;5033464;28;20033;-69
2023/04/22 06:42:29;;;;;;;1999.90;999.90;;;21.00;99.90;;;;;;5033491;28;20037;-69
2023/04/22 06:44:56;;;;;;;1999.90;999.90;;;21.00;99.90;;;;;;5037897;28;20031;-69
2023/04/22 06:47:23;;;;;;;1999.90;999.90;;;20.90;99.90;;;;;;5038014;28;20028;-67
2023/04/22 06:49:51;;;;;;;1999.90;999.90;;;20.80;99.90;;;;;;5043159;28;21446;-68
2023/04/22 06:52:18;;;;;;;1999.90;999.90;;;20.80;99.90;;;;;;5051636;28;20029;-68
2023/04/22 06:54:46;;;;;;;1999.90;999.90;;;20.70;99.90;;;;;;5048415;28;20040;-68
2023/04/22 06:57:13;;;;;;;1999.90;999.90;;;20.70;99.90;;;;;;5050152;28;20503;-69
2023/04/22 06:59:40;;;;;;;1999.90;999.90;;;20.70;99.90;;;;;;5048934;28;20029;-68
2023/04/22 07:02:08;;;;;;;1999.90;999.90;;;20.70;99.90;;;;;;5052252;28;20037;-68
2023/04/22 07:04:35;;;;;;;1999.90;999.90;;;20.70;99.90;;;;;;5045943;28;20029;-69
2023/04/22 07:07:02;;;;;;;1999.90;999.90;;;20.70;99.90;;;;;;5049256;28;20021;-68
2023/04/22 07:09:30;;;;;;;1999.90;999.90;;;20.70;99.90;;;;;;5052261;28;20143;-68
2023/04/22 07:11:57;;;;;;;1999.90;999.90;;;20.60;99.90;;;;;;5050462;28;20041;-68
2023/04/22 07:14:28;;;;;;;1999.90;999.90;;;20.60;99.90;;;;;;5046151;28;20024;-68
2023/04/22 07:16:55;;;;;;;1999.90;999.90;;;20.60;99.90;;;;;;5052842;28;20072;-68
2023/04/22 07:19:25;;;;;;;1999.90;999.90;;;20.60;99.90;;;;;;5043618;28;20044;-70
2023/04/22 07:21:53;;;;;;;1999.90;999.90;;;20.60;99.90;;;;;;5057584;28;20066;-69
2023/04/22 07:24:20;;;;;;;1999.90;999.90;;;20.50;99.90;;;;;;5055245;28;20649;-70
2023/04/22 07:26:47;;;;;;;1999.90;999.90;;;20.50;99.90;;;;;;5055719;28;20059;-70
2023/04/22 07:29:15;;;;;;;1999.90;999.90;;;20.50;99.90;;;;;;5054704;28;20032;-70
2023/04/22 07:31:42;;;;;;;1999.90;999.90;;;20.40;99.90;;;;;;5051133;28;20036;-71
2023/04/22 07:34:09;;;;;;;1999.90;999.90;;;20.40;99.90;;;;;;5053563;28;20047;-70
2023/04/22 07:36:37;;;;;;;1999.90;999.90;;;20.50;99.90;;;;;;5052092;28;20468;-69
2023/04/22 07:39:04;;;;;;;1999.90;999.90;;;20.40;99.90;;;;;;5056304;28;20036;-70
2023/04/22 07:41:32;;;;;;;1999.90;999.90;;;20.40;99.90;;;;;;5039135;28;20090;-70
2023/04/22 07:44:00;;;;;;;1999.90;999.90;;;20.40;99.90;;;;;;5048202;28;20089;-70
2023/04/22 07:46:27;;;;;;;1999.90;999.90;;;20.30;99.90;;;;;;5043642;28;20435;-70
2023/04/22 07:48:54;;;;;;;1999.90;999.90;;;20.30;99.90;;;;;;5049749;28;20025;-69
2023/04/22 07:51:22;;;;;;;1999.90;999.90;;;20.30;99.90;;;;;;5051139;28;20086;-68
2023/04/22 07:53:49;;;;;;;1999.90;999.90;;;20.30;99.90;;;;;;5052942;28;20082;-68
2023/04/22 07:56:16;;;;;;;1999.90;999.90;;;20.20;99.90;;;;;;5042532;28;20037;-68
2023/04/22 07:58:44;;;;;;;1999.90;999.90;;;20.20;99.90;;;;;;5049203;28;20041;-67
2023/04/22 08:01:11;;;;;;;1999.90;999.90;;;20.20;99.90;;;;;;5052403;28;20031;-67
2023/04/22 08:03:38;;;;;;;1999.90;999.90;;;20.20;99.90;;;;;;5040546;28;20029;-69
2023/04/22 08:06:06;;;;;;;1999.90;999.90;;;20.20;99.90;;;;;;5042750;28;20056;-68
2023/04/22 08:08:34;;;;;;;1999.90;999.90;;;20.20;99.90;;;;;;5044636;28;20048;-69
2023/04/22 08:11:01;;;;;;;1999.90;999.90;;;20.20;99.90;;;;;;5041419;28;20048;-69
2023/04/22 08:13:28;;;;;;;1999.90;999.90;;;20.20;99.90;;;;;;5043033;28;20074;-69
2023/04/22 08:15:56;;;;;;;1999.90;999.90;;;20.10;99.90;;;;;;5028410;28;20029;-68
2023/04/22 08:18:23;;;;;;;1999.90;999.90;;;20.10;99.90;;;;;;5036016;28;20566;-70
2023/04/22 08:20:50;;;;;;;1999.90;999.90;;;20.00;99.90;;;;;;5041911;28;20036;-69
2023/04/22 08:23:18;;;;;;;1999.90;999.90;;;20.00;99.90;;;;;;5048155;28;20119;-70
2023/04/22 08:25:45;;;;;;;1999.90;999.90;;;20.00;99.90;;;;;;5040137;28;20024;-69
2023/04/22 08:28:13;;;;;;;1999.90;999.90;;;20.00;99.90;;;;;;5048060;28;20032;-70
2023/04/22 08:30:40;;;;;;;1999.90;999.90;;;20.00;99.90;;;;;;5045867;28;20488;-69
2023/04/22 08:33:07;;;;;;;1999.90;999.90;;;20.00;99.90;;;;;;5056491;28;20033;-69
2023/04/22 08:35:35;;;;;;;1999.90;999.90;;;20.00;99.90;;;;;;5042234;28;20033;-69
2023/04/22 08:38:03;;;;;;;1999.90;999.90;;;20.00;99.90;;;;;;5046872;28;20466;-69
2023/04/22 08:40:30;;;;;;;1999.90;999.90;;;20.00;99.90;;;;;;5050444;28;20086;-69
2023/04/22 08:42:58;;;;;;;1999.90;999.90;;;20.00;99.90;;;;;;5048761;28;20099;-68
2023/04/22 08:45:25;;;;;;;1999.90;999.90;;;20.00;99.90;;;;;;5043114;28;20422;-68
2023/04/22 08:47:54;;;;;;;1999.90;999.90;;;20.00;99.90;;;;;;5051145;28;20480;-68
2023/04/22 08:50:22;;;;;;;1999.90;999.90;;;20.00;99.90;;;;;;5051007;28;20024;-68
2023/04/22 08:52:49;;;;;;;1999.90;999.90;;;19.90;99.90;;;;;;5042026;28;20034;-69
2023/04/22 08:55:16;;;;;;;1999.90;999.90;;;20.00;99.90;;;;;;5042615;28;20024;-68
2023/04/22 08:57:44;;;;;;;1999.90;999.90;;;20.00;99.90;;;;;;5053354;28;20401;-68
2023/04/22 09:00:12;;;;;;;1999.90;999.90;;;20.00;99.90;;;;;;5046963;28;20035;-69
2023/04/22 09:02:44;;;;;;;1999.90;999.90;;;19.90;99.90;;;;;;5051513;28;20391;-68
2023/04/22 09:05:13;;;;;;;1999.90;999.90;;;20.00;99.90;;;;;;5051530;28;20079;-68
2023/04/22 09:07:42;;;;;;;1999.90;999.90;;;19.90;99.90;;;;;;5049022;28;20040;-69
2023/04/22 09:10:10;;;;;;;1999.90;999.90;;;19.90;99.90;;;;;;5053240;28;20077;-69
2023/04/22 09:12:40;;;;;;;1999.90;999.90;;;19.90;99.90;;;;;;5050536;28;20029;-69
2023/04/22 09:15:08;;;;;;;1999.90;999.90;;;19.90;99.90;;;;;;5041645;28;20093;-68
2023/04/22 09:17:40;;;;;;;1999.90;999.90;;;19.90;99.90;;;;;;5051184;28;20024;-69
2023/04/22 09:20:08;;;;;;;1999.90;999.90;;;20.00;99.90;;;;;;5051718;28;20047;-70
2023/04/22 09:22:47;;;;;;;1999.90;999.90;;;19.90;99.90;;;;;;5055165;28;20043;-68
2023/04/22 09:25:27;;;;;;;1999.90;999.90;;;20.00;99.90;;;;;;5053739;28;20115;-68
2023/04/22 09:27:57;;;;;;;1999.90;999.90;;;20.00;99.90;;;;;;5057658;28;20116;-68
2023/04/22 09:30:44;;;;;;;1999.90;999.90;;;20.00;99.90;;;;;;5047114;28;20045;-70
2023/04/22 09:33:16;;;;;;;1999.90;999.90;;;20.00;99.90;;;;;;5056775;28;20426;-68
2023/04/22 09:35:44;;;;;;;1999.90;999.90;;;20.00;99.90;;;;;;5052275;28;20041;-69
2023/04/22 09:38:12;;;;;;;1999.90;999.90;;;19.90;99.90;;;;;;5057534;28;20033;-68
2023/04/22 09:40:43;;;;;;;1999.90;999.90;;;20.00;99.90;;;;;;5052628;28;20024;-68
2023/04/22 09:43:11;;;;;;;1999.90;999.90;;;19.90;99.90;;;;;;5053681;28;20037;-68
2023/04/22 09:45:42;;;;;;;1999.90;999.90;;;19.90;99.90;;;;;;5048146;28;20018;-69
2023/04/22 09:48:11;;;;;;;1999.90;999.90;;;19.90;99.90;;;;;;5048533;28;20037;-69
2023/04/22 09:50:42;;;;;;;1999.90;999.90;;;19.90;99.90;;;;;;5042731;28;20036;-69
2023/04/22 09:53:11;;;;;;;1999.90;999.90;;;19.90;99.90;;;;;;5050257;28;20044;-69
2023/04/22 09:55:41;;;;;;;1999.90;999.90;;;19.80;99.90;;;;;;5057662;28;20060;-68
2023/04/22 09:58:14;;;;;;;1999.90;999.90;;;19.80;99.90;;;;;;5049518;28;20505;-69
2023/04/22 10:00:47;;;;;;;1999.90;999.90;;;19.80;99.90;;;;;;5043032;28;20044;-68
2023/04/22 10:03:15;;;;;;;1999.90;999.90;;;19.80;99.90;;;;;;5052879;28;20029;-69
2023/04/22 10:05:44;;;;;;;1999.90;999.90;;;19.70;99.90;;;;;;5046072;28;20032;-70
2023/04/22 10:08:13;;;;;;;1999.90;999.90;;;19.80;99.90;;;;;;5059137;28;20083;-69
2023/04/22 10:10:41;;;;;;;1999.90;999.90;;;19.70;99.90;;;;;;5049932;28;20078;-68
2023/04/22 10:13:09;;;;;;;1999.90;999.90;;;19.70;99.90;;;;;;5048666;28;20032;-69
2023/04/22 10:15:40;;;;;;;1999.90;999.90;;;19.70;99.90;;;;;;5050616;28;20032;-69
2023/04/22 10:18:13;;;;;;;1999.90;999.90;;;19.70;99.90;;;;;;5046643;28;20045;-69
2023/04/22 10:20:42;;;;;;;1999.90;999.90;;;19.70;99.90;;;;;;5043702;28;20100;-69
2023/04/22 10:23:21;;;;;;;1999.90;999.90;;;19.70;99.90;;;;;;5049710;28;20111;-69
2023/04/22 10:25:57;;;;;;;1999.90;999.90;;;19.60;99.90;;;;;;5040253;28;20024;-69
2023/04/22 10:28:29;;;;;;;1999.90;999.90;;;19.70;99.90;;;;;;5058359;28;20032;-69
2023/04/22 10:30:56;;;;;;;1999.90;999.90;;;19.60;99.90;;;;;;5052649;28;20123;-69
2023/04/22 10:33:26;;;;;;;1999.90;999.90;;;19.60;99.90;;;;;;5056030;28;20028;-69
2023/04/22 10:36:15;;;;;;;1999.90;999.90;;;19.60;99.90;;;;;;5044546;28;20503;-70
2023/04/22 10:38:54;;;;;;;1999.90;999.90;;;19.60;99.90;;;;;;5051761;28;20503;-69
2023/04/22 10:41:29;;;;;;;1999.90;999.90;;;19.60;99.90;;;;;;5051580;28;20082;-69
2023/04/22 10:43:59;;;;;;;1999.90;999.90;;;19.60;99.90;;;;;;5048148;28;20034;-68
2023/04/22 10:46:44;;;;;;;1999.90;999.90;;;19.50;99.90;;;;;;5048715;28;20380;-69
2023/04/22 10:49:14;;;;;;;1999.90;999.90;;;19.50;99.90;;;;;;5053694;28;20052;-68
2023/04/22 10:51:58;;;;;;;1999.90;999.90;;;19.50;99.90;;;;;;5055891;28;20028;-68
2023/04/22 10:54:30;;;;;;;1999.90;999.90;;;19.40;99.90;;;;;;5054689;28;20044;-69
2023/04/22 10:57:13;;;;;;;1999.90;999.90;;;19.30;99.90;;;;;;5059915;28;20772;-69
2023/04/22 10:59:51;;;;;;;1999.90;999.90;;;19.30;99.90;;;;;;5046936;28;20037;-69
2023/04/22 11:02:20;;;;;;;1999.90;999.90;;;19.20;99.90;;;;;;5052432;28;20063;-69
2023/04/22 11:04:48;;;;;;;1999.90;999.90;;;19.10;99.90;;;;;;5051962;28;20480;-67
2023/04/22 11:07:29;;;;;;;1999.90;999.90;;;19.10;99.90;;;;;;5060331;28;20025;-71
2023/04/22 11:10:05;;;;;;;1999.90;999.90;;;19.10;99.90;;;;;;5049202;28;20141;-68
2023/04/22 11:12:38;;;;;;;1999.90;999.90;;;19.10;99.90;;;;;;5047372;28;20430;-69
2023/04/22 11:15:10;;;;;;;1999.90;999.90;;;19.00;99.90;;;;;;5044198;28;20467;-68
2023/04/22 11:17:39;;;;;;;1999.90;999.90;;;19.00;99.90;;;;;;5056050;28;20033;-69
2023/04/22 11:20:08;;;;;;;1999.90;999.90;;;19.00;99.90;;;;;;5051667;28;20024;-70
2023/04/22 11:22:41;;;;;;;1999.90;999.90;;;19.00;99.90;;;;;;5057357;28;20048;-68
2023/04/22 11:25:10;;;;;;;1999.90;999.90;;;19.00;99.90;;;;;;5045307;28;20025;-70
2023/04/22 11:27:38;;;;;;;1999.90;999.90;;;19.00;99.90;;;;;;5052928;28;20025;-69
2023/04/22 11:30:11;;;;;;;1999.90;999.90;;;19.00;99.90;;;;;;5039554;28;20056;-69
2023/04/22 11:32:40;;;;;;;1999.90;999.90;;;19.00;99.90;;;;;;5047272;28;20116;-70
2023/04/22 11:35:14;;;;;;;1999.90;999.90;;;19.00;99.90;;;;;;5048544;28;20155;-69
2023/04/22 11:37:47;;;;;;;1999.90;999.90;;;19.00;99.90;;;;;;5047335;28;20029;-69
2023/04/22 11:40:20;;;;;;;1999.90;999.90;;;19.00;99.90;;;;;;5043919;28;20095;-69
2023/04/22 11:42:48;;;;;;;1999.90;999.90;;;19.00;99.90;;;;;;5045874;28;20488;-70
2023/04/22 11:45:17;;;;;;;1999.90;999.90;;;19.00;99.90;;;;;;5046421;28;20474;-68
2023/04/22 11:47:49;;;;;;;1999.90;999.90;;;19.00;99.90;;;;;;5049176;28;20427;-69
2023/04/22 11:50:20;;;;;;;1999.90;999.90;;;19.00;99.90;;;;;;5041293;28;20036;-68
2023/04/22 11:52:54;;;;;;;1999.90;999.90;;;19.00;99.90;;;;;;5057819;28;20024;-68
2023/04/22 11:55:31;;;;;;;1999.90;999.90;;;19.00;99.90;;;;;;5044235;28;20056;-68
2023/04/22 11:58:06;;;;;;;1999.90;999.90;;;19.00;99.90;;;;;;5049809;28;20051;-68
2023/04/22 12:00:47;;;;;;;1999.90;999.90;;;19.00;99.90;;;;;;5047515;28;20068;-69
2023/04/22 12:03:23;;;;;;;1999.90;999.90;;;19.00;99.90;;;;;;5048442;28;20029;-68
2023/04/22 12:06:01;;;;;;;1999.90;999.90;;;19.00;99.90;;;;;;5041782;28;20108;-69